Time;durP1;ratioP1;P1;durP2;ratioP2;P2;SDS_P1;SDS_P2;PMS_P1;PMS_P2;Temp;Humidity;BMP_temperature;BMP_pressure;BME280_temperature;BME280_humidity;BME280_pressure;Samples;Min_cycle;Max_cycle;Signal;HPM_P1;HPM_P2
2023/12/19 00:00:31;;;;;;;3.90;2.30;;;;;;;6.41;60.58;97266.13;110157;1278;22501;-88
2023/12/19 00:03:17;;;;;;;7.70;4.10;;;;;;;6.37;59.65;97266.82;110108;1271;137533;-88
2023/12/19 00:05:44;;;;;;;7.50;4.40;;;;;;;6.36;60.01;97260.75;110081;1279;22223;-89
2023/12/19 00:08:14;;;;;;;4.70;3.00;;;;;;;6.32;60.68;97259.48;109995;1278;137962;-89
2023/12/19 00:10:42;;;;;;;3.90;2.30;;;;;;;6.26;60.78;97254.31;110207;1272;22868;-88
2023/12/19 00:13:09;;;;;;;5.00;2.50;;;;;;;6.23;60.25;97261.65;110168;1276;22950;-88
2023/12/19 00:15:35;;;;;;;5.40;2.70;;;;;;;6.19;60.94;97256.91;110101;1271;137398;-88
2023/12/19 00:18:01;;;;;;;4.70;2.80;;;;;;;6.14;61.18;97249.39;110187;1278;22420;-88
2023/12/19 00:20:28;;;;;;;4.40;2.00;;;;;;;6.11;61.98;97238.02;110050;1271;137955;-88
2023/12/19 00:22:55;;;;;;;2.60;1.40;;;;;;;6.06;61.74;97243.07;110132;1278;23052;-88
2023/12/19 00:25:23;;;;;;;1.80;1.00;;;;;;;6.04;61.62;97253.25;110088;1278;22847;-88
2023/12/19 00:27:49;;;;;;;1.60;0.90;;;;;;;5.99;61.65;97249.11;110239;1278;22400;-88
2023/12/19 00:30:16;;;;;;;4.00;2.00;;;;;;;5.93;60.76;97258.58;110096;1278;22235;-88
2023/12/19 00:32:42;;;;;;;10.10;5.40;;;;;;;5.90;61.14;97253.90;109890;1278;137469;-88
2023/12/19 00:35:08;;;;;;;4.20;2.00;;;;;;;5.86;61.51;97248.14;110189;1274;22489;-88
2023/12/19 00:37:34;;;;;;;1.70;1.20;;;;;;;5.84;61.59;97242.66;110145;1277;137669;-88
2023/12/19 00:40:00;;;;;;;1.80;1.20;;;;;;;5.82;60.63;97245.90;110033;1275;23047;-89
2023/12/19 00:42:26;;;;;;;2.00;0.90;;;;;;;5.82;60.53;97248.71;110102;1278;22264;-88
2023/12/19 00:44:52;;;;;;;1.50;0.90;;;;;;;5.80;61.33;97244.41;110017;1278;137424;-88
2023/12/19 00:47:18;;;;;;;1.20;0.80;;;;;;;5.77;61.76;97239.66;110223;1262;22241;-88
2023/12/19 00:49:45;;;;;;;2.40;1.50;;;;;;;5.76;60.89;97243.67;110016;1272;137833;-88
2023/12/19 00:52:11;;;;;;;3.10;1.50;;;;;;;5.76;61.31;97251.41;110147;1279;22223;-88
2023/12/19 00:54:37;;;;;;;2.20;1.40;;;;;;;5.75;61.42;97253.75;110176;1278;22274;-88
2023/12/19 00:57:03;;;;;;;2.00;1.20;;;;;;;5.75;60.94;97249.45;110120;1272;137569;-88
2023/12/19 00:59:29;;;;;;;2.00;1.20;;;;;;;5.79;59.85;97253.59;109998;1277;22221;-89
2023/12/19 01:01:56;;;;;;;1.40;1.00;;;;;;;5.90;59.38;97252.50;109892;1272;138242;-88
2023/12/19 01:04:22;;;;;;;1.30;1.00;;;;;;;5.98;60.30;97247.80;110015;1278;22256;-88
2023/12/19 01:06:48;;;;;;;1.70;1.10;;;;;;;6.04;60.36;97243.10;110159;1271;22215;-88
2023/12/19 01:09:14;;;;;;;2.70;1.70;;;;;;;6.09;59.19;97242.98;109979;1274;137466;-89
2023/12/19 01:11:41;;;;;;;1.80;1.30;;;;;;;6.16;59.49;97239.43;110010;1277;22340;-88
2023/12/19 01:14:08;;;;;;;1.20;1.00;;;;;;;6.19;59.65;97243.83;110054;1278;138071;-88
2023/12/19 01:16:34;;;;;;;1.30;0.90;;;;;;;6.22;59.65;97246.85;109988;1272;22511;-89
2023/12/19 01:19:02;;;;;;;1.80;1.00;;;;;;;6.29;56.38;97251.66;109998;1275;23094;-89
2023/12/19 01:21:28;;;;;;;1.60;1.20;;;;;;;6.54;54.70;97261.23;110136;1272;137397;-88
2023/12/19 01:23:54;;;;;;;11.80;4.70;;;;;;;6.80;55.20;97264.41;110177;1274;23078;-88
2023/12/19 01:26:20;;;;;;;4.10;2.50;;;;;;;6.91;54.17;97275.25;109870;1278;137355;-88
2023/12/19 01:28:46;;;;;;;8.90;4.00;;;;;;;7.03;53.27;97279.04;110138;1278;22471;-88
2023/12/19 01:31:12;;;;;;;2.60;1.50;;;;;;;7.11;55.05;97265.89;110219;1278;22254;-88
2023/12/19 01:33:38;;;;;;;2.10;1.50;;;;;;;7.10;55.57;97260.98;109928;1272;136923;-88
2023/12/19 01:36:05;;;;;;;2.30;1.10;;;;;;;7.11;53.33;97262.61;110120;1277;22338;-88
2023/12/19 01:38:31;;;;;;;1.70;1.10;;;;;;;7.19;53.29;97255.15;109981;1275;137493;-89
2023/12/19 01:40:57;;;;;;;2.20;1.50;;;;;;;7.29;52.50;97254.69;110147;1278;22222;-89
2023/12/19 01:43:23;;;;;;;2.10;1.20;;;;;;;7.37;51.28;97256.51;109921;1278;137479;-89
2023/12/19 01:45:52;;;;;;;1.90;1.10;;;;;;;7.49;51.00;97258.45;110141;1278;23144;-89
2023/12/19 01:48:18;;;;;;;1.80;1.20;;;;;;;7.59;50.54;97259.32;110213;1277;22892;-89
2023/12/19 01:50:45;;;;;;;4.10;2.90;;;;;;;7.67;50.06;97252.35;109879;1277;136433;-88
2023/12/19 01:53:11;;;;;;;3.60;1.60;;;;;;;7.73;50.82;97242.95;110109;1277;22226;-89
2023/12/19 01:55:37;;;;;;;1.40;1.00;;;;;;;7.77;50.70;97239.95;110094;1278;138544;-89
2023/12/19 01:58:03;;;;;;;1.70;1.30;;;;;;;7.79;51.28;97236.33;110064;1277;22204;-89
2023/12/19 02:00:30;;;;;;;1.70;0.90;;;;;;;7.82;50.38;97243.70;110014;1278;22191;-88
2023/12/19 02:02:56;;;;;;;1.50;1.00;;;;;;;7.86;49.67;97239.69;110055;1277;137628;-89
2023/12/19 02:05:22;;;;;;;1.90;1.00;;;;;;;7.92;49.52;97219.16;110253;1278;22368;-88
2023/12/19 02:07:48;;;;;;;2.40;1.40;;;;;;;7.98;48.83;97206.86;110095;1274;137612;-88
2023/12/19 02:10:16;;;;;;;2.50;1.40;;;;;;;8.00;50.36;97197.09;109985;1276;22338;-89
2023/12/19 02:12:46;;;;;;;1.30;0.80;;;;;;;8.01;49.45;97196.19;110074;1277;22527;-88
2023/12/19 02:15:12;;;;;;;1.30;0.80;;;;;;;8.05;48.70;97191.34;110108;1274;137945;-89
2023/12/19 02:17:40;;;;;;;1.00;0.80;;;;;;;8.08;48.92;97188.36;110118;1273;22379;-88
2023/12/19 02:20:06;;;;;;;2.00;0.90;;;;;;;8.12;47.97;97175.74;109951;1279;138388;-89
2023/12/19 02:22:32;;;;;;;1.20;0.70;;;;;;;8.27;45.81;97179.55;110182;1277;23007;-89
2023/12/19 02:24:58;;;;;;;2.70;1.40;;;;;;;8.46;46.13;97181.38;110019;1276;22296;-89
2023/12/19 02:27:25;;;;;;;3.40;1.90;;;;;;;8.59;45.22;97180.80;109882;1279;137670;-89
2023/12/19 02:29:51;;;;;;;2.80;1.30;;;;;;;8.71;45.63;97186.86;110053;1264;22220;-87
2023/12/19 02:32:17;;;;;;;2.10;1.40;;;;;;;8.77;45.33;97185.77;110060;1276;137985;-88
2023/12/19 02:34:43;;;;;;;2.90;1.40;;;;;;;8.82;45.35;97184.70;110148;1275;23278;-88
2023/12/19 02:37:09;;;;;;;1.10;0.90;;;;;;;8.86;44.53;97180.33;110016;1276;22959;-89
2023/12/19 02:39:35;;;;;;;1.40;0.80;;;;;;;8.92;45.13;97179.41;110020;1273;137324;-88
2023/12/19 02:42:02;;;;;;;2.30;0.70;;;;;;;8.93;44.77;97181.50;110131;1278;22259;-89
2023/12/19 02:44:28;;;;;;;1.60;1.00;;;;;;;8.96;44.70;97184.48;110066;1276;137632;-89
2023/12/19 02:46:54;;;;;;;1.80;1.10;;;;;;;8.99;44.60;97184.25;110138;1278;22484;-88
2023/12/19 02:49:20;;;;;;;1.20;1.10;;;;;;;9.01;44.54;97183.52;110153;1278;22238;-88
2023/12/19 02:51:46;;;;;;;1.40;1.30;;;;;;;9.01;44.67;97178.45;110140;1274;22400;-88
2023/12/19 02:54:12;;;;;;;20.90;7.40;;;;;;;9.03;44.59;97176.75;110196;1278;22830;-89
2023/12/19 02:56:39;;;;;;;3.70;1.40;;;;;;;9.07;45.26;97169.25;109881;1276;138155;-88
2023/12/19 02:59:05;;;;;;;8.00;3.60;;;;;;;9.07;45.81;97173.94;110178;1276;22221;-89
2023/12/19 03:01:31;;;;;;;4.80;2.40;;;;;;;9.06;44.97;97167.82;109995;1277;138285;-89
2023/12/19 03:03:57;;;;;;;5.80;3.00;;;;;;;9.10;44.94;97171.05;110127;1272;22330;-88
2023/12/19 03:06:23;;;;;;;3.40;1.70;;;;;;;9.11;45.73;97175.10;110116;1278;23187;-88
2023/12/19 03:08:52;;;;;;;2.20;1.10;;;;;;;9.10;45.29;97178.77;109982;1278;137361;-89
2023/12/19 03:11:18;;;;;;;1.80;1.20;;;;;;;9.12;45.51;97176.20;110147;1278;22315;-89
2023/12/19 03:13:45;;;;;;;1.10;0.80;;;;;;;9.15;45.33;97176.95;109924;1276;137762;-88
2023/12/19 03:16:11;;;;;;;1.20;0.80;;;;;;;9.19;45.80;97182.61;110040;1277;22236;-88
2023/12/19 03:18:37;;;;;;;1.10;0.90;;;;;;;9.21;46.00;97182.00;110230;1278;23379;-88
2023/12/19 03:21:03;;;;;;;10.10;7.00;;;;;;;9.23;46.40;97174.39;110104;1278;137875;-88
2023/12/19 03:23:29;;;;;;;65.60;27.60;;;;;;;9.26;46.54;97172.89;109999;1270;22180;-88
2023/12/19 03:25:55;;;;;;;12.20;5.20;;;;;;;9.29;46.42;97169.15;110023;1275;138054;-88
2023/12/19 03:28:22;;;;;;;12.70;6.50;;;;;;;9.30;46.90;97166.83;110082;1278;22365;-88
2023/12/19 03:30:48;;;;;;;8.30;4.20;;;;;;;9.30;46.54;97163.42;110050;1277;22404;-89
2023/12/19 03:33:14;;;;;;;2.70;1.90;;;;;;;9.31;46.91;97149.66;110126;1268;138054;-89
2023/12/19 03:35:40;;;;;;;2.30;1.50;;;;;;;9.34;46.85;97139.06;110215;1275;22402;-88
2023/12/19 03:38:06;;;;;;;1.80;1.00;;;;;;;9.39;46.93;97131.10;109887;1272;138281;-89
2023/12/19 03:40:33;;;;;;;2.60;1.00;;;;;;;9.46;47.33;97124.20;110187;1278;22381;-89
2023/12/19 03:42:59;;;;;;;2.00;0.90;;;;;;;9.49;47.30;97118.13;110285;1276;22250;-88
2023/12/19 03:45:25;;;;;;;1.40;0.70;;;;;;;9.53;47.75;97114.95;110125;1278;137405;-88
2023/12/19 03:47:51;;;;;;;1.10;0.70;;;;;;;9.56;47.89;97120.30;110182;1270;23417;-88
2023/12/19 03:50:17;;;;;;;0.90;0.70;;;;;;;9.60;47.49;97124.05;109983;1278;138124;-88
2023/12/19 03:52:43;;;;;;;0.90;0.70;;;;;;;9.68;47.54;97133.02;110067;1274;23060;-88
2023/12/19 03:55:09;;;;;;;1.20;0.70;;;;;;;9.72;47.59;97120.80;109997;1271;22227;-88
2023/12/19 03:57:35;;;;;;;1.10;0.70;;;;;;;9.75;47.50;97110.77;109895;1278;137961;-88
2023/12/19 04:00:03;;;;;;;1.20;0.70;;;;;;;9.78;47.66;97112.11;110144;1270;22375;-87
2023/12/19 04:02:29;;;;;;;1.10;0.60;;;;;;;9.77;47.61;97120.61;110056;1275;138288;-89
2023/12/19 04:04:55;;;;;;;1.80;0.60;;;;;;;9.79;46.55;97113.67;110019;1278;22378;-89
2023/12/19 04:07:21;;;;;;;2.70;1.80;;;;;;;9.85;47.82;97119.06;109983;1275;137731;-89
2023/12/19 04:09:50;;;;;;;0.90;0.70;;;;;;;9.87;47.33;97125.27;110186;1270;22387;-88
2023/12/19 04:12:18;;;;;;;1.60;0.80;;;;;;;9.89;47.68;97150.51;110121;1277;22172;-89
2023/12/19 04:14:45;;;;;;;1.00;0.60;;;;;;;9.92;47.58;97170.12;109943;1273;137706;-89
2023/12/19 04:17:11;;;;;;;1.00;0.70;;;;;;;9.98;47.54;97166.95;110002;1279;22173;-89
2023/12/19 04:19:39;;;;;;;1.30;0.80;;;;;;;10.01;47.83;97164.33;109914;1277;138187;-89
2023/12/19 04:22:05;;;;;;;0.80;0.70;;;;;;;10.00;47.78;97157.74;110000;1279;22294;-88
2023/12/19 04:24:31;;;;;;;1.20;0.70;;;;;;;9.97;47.51;97158.69;109986;1278;23051;-88
2023/12/19 04:26:57;;;;;;;1.10;0.70;;;;;;;9.97;47.63;97157.39;109927;1278;137857;-89
2023/12/19 04:29:23;;;;;;;33.70;11.60;;;;;;;9.94;47.62;97157.58;110113;1277;23049;-88
2023/12/19 04:31:49;;;;;;;10.90;4.30;;;;;;;9.92;47.55;97158.67;110092;1271;138021;-89
2023/12/19 04:34:16;;;;;;;240.40;95.80;;;;;;;9.91;47.81;97144.05;110029;1278;22492;-88
2023/12/19 04:36:42;;;;;;;330.80;134.30;;;;;;;9.88;48.01;97135.35;110032;1277;22260;-89
2023/12/19 04:39:08;;;;;;;161.80;59.50;;;;;;;9.87;47.53;97134.48;109918;1278;138360;-88
2023/12/19 04:41:34;;;;;;;53.30;18.50;;;;;;;9.86;47.39;97127.63;110139;1273;22195;-88
2023/12/19 04:44:00;;;;;;;68.90;19.30;;;;;;;9.85;47.92;97125.00;109870;1278;138874;-89
2023/12/19 04:46:26;;;;;;;26.30;9.30;;;;;;;9.83;47.89;97126.59;110239;1275;22258;-88
2023/12/19 04:48:52;;;;;;;40.10;12.70;;;;;;;9.80;47.80;97131.94;110041;1278;22425;-89
2023/12/19 04:51:19;;;;;;;129.50;52.70;;;;;;;9.77;47.81;97132.55;110121;1276;138902;-88
2023/12/19 04:53:46;;;;;;;95.80;27.30;;;;;;;9.74;47.86;97137.16;110064;1277;23052;-89
2023/12/19 04:56:12;;;;;;;69.50;19.70;;;;;;;9.71;47.92;97137.19;109919;1278;138008;-88
2023/12/19 04:58:40;;;;;;;64.10;16.00;;;;;;;9.67;47.69;97128.91;110029;1278;22192;-89
2023/12/19 05:01:06;;;;;;;89.70;23.70;;;;;;;9.66;47.72;97128.39;110081;1279;22278;-89
2023/12/19 05:03:33;;;;;;;87.10;38.60;;;;;;;9.62;47.35;97118.14;109935;1276;138294;-89
2023/12/19 05:06:00;;;;;;;74.00;23.70;;;;;;;9.64;47.20;97117.14;110228;1274;22190;-88
2023/12/19 05:08:27;;;;;;;63.20;17.80;;;;;;;9.69;47.49;97124.37;110025;1278;137967;-88
2023/12/19 05:10:54;;;;;;;59.80;15.40;;;;;;;9.69;47.52;97121.25;110229;1272;22443;-87
2023/12/19 05:13:20;;;;;;;39.90;12.70;;;;;;;9.68;47.72;97126.59;110086;1274;22309;-88
2023/12/19 05:15:46;;;;;;;36.80;10.40;;;;;;;9.64;47.46;97119.95;110222;1263;22935;-89
2023/12/19 05:18:12;;;;;;;53.00;15.40;;;;;;;9.64;47.98;97131.12;110027;1278;22235;-88
2023/12/19 05:20:38;;;;;;;50.90;13.90;;;;;;;9.62;47.64;97128.26;109971;1277;138071;-89
2023/12/19 05:23:04;;;;;;;228.80;86.80;;;;;;;9.61;47.44;97127.80;110047;1270;23191;-88
2023/12/19 05:25:30;;;;;;;50.90;21.80;;;;;;;9.62;47.54;97133.22;110145;1273;138844;-89
2023/12/19 05:27:56;;;;;;;13.70;6.80;;;;;;;9.64;47.32;97131.18;110241;1276;22223;-89
2023/12/19 05:30:22;;;;;;;7.50;4.20;;;;;;;9.64;47.24;97131.83;110197;1279;22960;-88
2023/12/19 05:32:49;;;;;;;34.60;10.20;;;;;;;9.66;47.25;97134.09;110109;1273;137827;-89
2023/12/19 05:35:15;;;;;;;46.60;13.90;;;;;;;9.65;47.15;97132.08;110023;1278;22417;-88
2023/12/19 05:37:42;;;;;;;25.60;8.00;;;;;;;9.65;47.37;97129.33;110108;1274;138130;-88
2023/12/19 05:40:08;;;;;;;34.80;10.60;;;;;;;9.66;47.52;97132.21;109990;1278;22327;-88
2023/12/19 05:42:36;;;;;;;33.20;10.60;;;;;;;9.66;47.42;97133.93;110102;1278;22423;-88
2023/12/19 05:45:03;;;;;;;33.30;10.10;;;;;;;9.64;47.66;97138.61;109914;1278;138724;-88
2023/12/19 05:47:29;;;;;;;22.30;6.80;;;;;;;9.61;47.46;97134.02;110066;1270;22217;-88
2023/12/19 05:49:55;;;;;;;31.60;9.50;;;;;;;9.60;48.11;97142.11;109975;1277;137122;-88
2023/12/19 05:52:21;;;;;;;30.30;9.40;;;;;;;9.55;48.36;97143.96;110055;1278;22362;-89
2023/12/19 05:54:47;;;;;;;251.50;101.90;;;;;;;9.50;48.10;97150.00;110193;1274;22921;-89
2023/12/19 05:57:13;;;;;;;80.60;26.80;;;;;;;9.48;48.25;97148.98;109999;1269;138315;-88
2023/12/19 05:59:39;;;;;;;58.40;17.60;;;;;;;9.48;48.16;97151.16;110068;1269;23337;-88
2023/12/19 06:02:06;;;;;;;57.60;16.80;;;;;;;9.47;48.42;97149.66;109992;1272;138517;-88
2023/12/19 06:04:33;;;;;;;33.80;10.90;;;;;;;9.46;48.19;97146.52;110102;1278;22981;-89
2023/12/19 06:06:59;;;;;;;13.10;4.10;;;;;;;9.45;48.42;97147.32;109985;1278;22513;-89
2023/12/19 06:09:27;;;;;;;12.40;4.10;;;;;;;9.45;48.45;97148.62;110062;1270;138220;-88
2023/12/19 06:11:53;;;;;;;39.10;11.90;;;;;;;9.45;48.82;97140.70;110087;1278;22182;-88
2023/12/19 06:14:19;;;;;;;17.40;5.50;;;;;;;9.43;48.58;97141.25;110103;1274;138026;-89
2023/12/19 06:16:46;;;;;;;27.50;9.80;;;;;;;9.41;48.46;97143.13;110074;1273;22170;-88
2023/12/19 06:19:12;;;;;;;23.60;7.40;;;;;;;9.41;48.47;97144.69;110024;1279;22261;-89
2023/12/19 06:21:39;;;;;;;76.00;33.90;;;;;;;9.42;48.19;97143.91;109988;1278;137145;-88
2023/12/19 06:24:05;;;;;;;64.40;22.00;;;;;;;9.42;48.24;97132.83;110044;1274;22365;-89
2023/12/19 06:26:31;;;;;;;26.00;8.80;;;;;;;9.45;48.29;97135.71;110098;1276;138021;-89
2023/12/19 06:28:57;;;;;;;55.20;15.00;;;;;;;9.45;48.32;97130.14;110257;1278;22116;-89
2023/12/19 06:31:23;;;;;;;74.90;21.90;;;;;;;9.44;48.25;97120.72;109982;1278;138251;-89
2023/12/19 06:33:49;;;;;;;49.50;15.10;;;;;;;9.44;48.21;97119.36;110035;1278;22204;-88
2023/12/19 06:36:31;;;;;;;38.00;11.50;;;;;;;9.45;48.41;97117.85;110195;1273;22198;-88
2023/12/19 06:38:57;;;;;;;42.70;13.50;;;;;;;9.45;48.12;97114.41;109984;1278;138446;-88
2023/12/19 06:41:23;;;;;;;37.90;11.40;;;;;;;9.45;48.44;97109.29;110122;1278;22174;-89
2023/12/19 06:43:49;;;;;;;20.10;6.40;;;;;;;9.42;48.48;97104.67;110166;1274;137624;-87
2023/12/19 06:46:15;;;;;;;25.00;7.20;;;;;;;9.39;48.61;97101.92;110095;1272;22883;-88
2023/12/19 06:48:42;;;;;;;14.80;4.60;;;;;;;9.37;48.78;97090.54;110055;1278;23003;-89
2023/12/19 06:51:08;;;;;;;31.60;15.40;;;;;;;9.34;49.56;97076.82;109954;1274;138263;-88
2023/12/19 06:53:34;;;;;;;58.00;25.00;;;;;;;9.30;48.96;97068.61;110142;1278;22409;-88
2023/12/19 06:56:00;;;;;;;69.00;19.70;;;;;;;9.28;48.94;97059.80;110127;1277;137615;-89
2023/12/19 06:58:26;;;;;;;45.30;12.80;;;;;;;9.30;48.03;97051.63;110110;1278;22230;-88
2023/12/19 07:00:52;;;;;;;65.50;18.30;;;;;;;9.38;47.82;97048.26;110043;1278;22210;-89
2023/12/19 07:03:18;;;;;;;46.60;11.30;;;;;;;9.46;48.11;97051.05;109921;1276;137997;-88
2023/12/19 07:05:45;;;;;;;34.30;9.70;;;;;;;9.49;48.30;97055.17;110092;1279;22193;-88
2023/12/19 07:08:12;;;;;;;33.60;10.30;;;;;;;9.52;47.76;97058.36;110048;1270;137842;-88
2023/12/19 07:10:39;;;;;;;29.20;10.70;;;;;;;9.59;47.85;97060.48;110011;1278;23099;-88
2023/12/19 07:13:05;;;;;;;37.40;10.40;;;;;;;9.65;47.84;97061.17;110048;1273;22295;-88
2023/12/19 07:15:32;;;;;;;56.60;17.10;;;;;;;9.69;47.88;97065.89;110074;1275;137935;-88
2023/12/19 07:17:58;;;;;;;32.70;10.50;;;;;;;9.71;47.95;97069.71;110105;1270;22282;-88
2023/12/19 07:20:24;;;;;;;178.90;81.00;;;;;;;9.71;47.73;97079.73;109890;1279;137862;-88
2023/12/19 07:22:50;;;;;;;108.50;41.30;;;;;;;9.69;48.76;97080.80;110225;1278;22333;-89
2023/12/19 07:25:17;;;;;;;77.30;22.10;;;;;;;9.66;49.07;97083.40;110035;1279;22947;-89
2023/12/19 07:27:44;;;;;;;46.90;12.10;;;;;;;9.62;48.17;97083.95;109976;1274;137480;-88
2023/12/19 07:30:11;;;;;;;74.10;19.90;;;;;;;9.59;48.74;97082.98;110196;1270;22265;-88
2023/12/19 07:32:37;;;;;;;41.40;12.40;;;;;;;9.57;48.23;97082.85;110111;1278;137663;-88
2023/12/19 07:35:05;;;;;;;32.70;10.70;;;;;;;9.57;48.39;97081.55;110265;1278;22452;-88
2023/12/19 07:37:31;;;;;;;63.70;19.50;;;;;;;9.55;48.62;97081.58;109955;1277;138219;-88
2023/12/19 07:39:59;;;;;;;27.10;8.80;;;;;;;9.53;48.69;97074.83;110085;1267;23175;-88
2023/12/19 07:42:25;;;;;;;15.00;5.50;;;;;;;9.52;48.91;97071.88;110244;1270;22290;-88
2023/12/19 07:44:51;;;;;;;81.20;41.50;;;;;;;9.49;49.23;97070.92;109928;1274;138539;-88
2023/12/19 07:47:18;;;;;;;215.30;94.60;;;;;;;9.46;48.63;97062.57;110120;1273;22118;-89
2023/12/19 07:49:44;;;;;;;86.20;30.60;;;;;;;9.48;48.24;97058.80;110092;1278;138278;-88
2023/12/19 07:52:10;;;;;;;50.70;17.00;;;;;;;9.50;48.48;97056.45;110192;1275;22189;-88
2023/12/19 07:54:36;;;;;;;28.50;9.20;;;;;;;9.53;48.21;97047.33;110289;1269;22973;-89
2023/12/19 07:57:02;;;;;;;34.30;10.00;;;;;;;9.58;48.00;97040.61;109988;1272;138827;-89
2023/12/19 07:59:28;;;;;;;28.70;9.50;;;;;;;9.62;48.08;97037.54;110220;1278;22225;-87
2023/12/19 08:01:54;;;;;;;48.50;14.90;;;;;;;9.66;48.26;97035.48;109967;1270;138202;-88
2023/12/19 08:04:20;;;;;;;29.40;11.40;;;;;;;9.68;48.03;97038.73;110085;1278;22208;-89
2023/12/19 08:06:47;;;;;;;15.50;5.60;;;;;;;9.72;47.80;97037.77;110204;1276;23028;-88
2023/12/19 08:09:14;;;;;;;7.30;3.30;;;;;;;9.77;47.90;97043.00;110038;1272;137850;-88
2023/12/19 08:11:40;;;;;;;40.80;15.70;;;;;;;9.79;48.12;97047.92;110082;1273;23014;-89
2023/12/19 08:14:08;;;;;;;27.80;8.70;;;;;;;9.81;48.01;97050.27;109928;1278;138050;-88
2023/12/19 08:16:34;;;;;;;34.40;10.50;;;;;;;9.85;47.83;97053.69;110078;1274;22256;-88
2023/12/19 08:19:00;;;;;;;24.90;8.20;;;;;;;9.89;47.73;97056.04;110085;1274;22445;-89
2023/12/19 08:21:26;;;;;;;32.40;9.60;;;;;;;9.91;47.67;97059.09;109988;1273;137910;-89
2023/12/19 08:23:52;;;;;;;31.00;10.80;;;;;;;9.93;47.57;97055.94;110058;1272;22298;-88
2023/12/19 08:26:18;;;;;;;23.80;7.40;;;;;;;9.95;47.81;97050.27;109972;1278;138106;-88
2023/12/19 08:28:44;;;;;;;47.20;14.20;;;;;;;9.94;47.83;97052.77;110080;1273;22327;-88
2023/12/19 08:31:10;;;;;;;31.30;10.50;;;;;;;9.93;47.49;97040.17;110054;1278;23498;-89
2023/12/19 08:33:37;;;;;;;16.50;6.20;;;;;;;9.96;47.22;97038.42;109950;1278;137922;-89
2023/12/19 08:36:04;;;;;;;27.90;14.90;;;;;;;9.98;47.18;97040.11;110183;1264;22250;-89
2023/12/19 08:38:30;;;;;;;26.90;10.40;;;;;;;10.01;46.93;97041.17;109937;1278;138077;-88
2023/12/19 08:40:56;;;;;;;15.60;5.40;;;;;;;10.03;46.84;97048.20;110027;1273;22783;-89
2023/12/19 08:43:22;;;;;;;18.20;6.40;;;;;;;10.06;45.94;97046.59;110111;1270;138009;-88
2023/12/19 08:45:48;;;;;;;23.90;7.40;;;;;;;10.11;45.94;97046.73;110039;1278;22322;-89
2023/12/19 08:48:14;;;;;;;15.80;4.00;;;;;;;10.15;46.40;97043.02;110084;1278;23774;-88
2023/12/19 08:50:41;;;;;;;9.90;3.10;;;;;;;10.18;46.00;97040.03;110146;1270;138951;-89
2023/12/19 08:53:07;;;;;;;18.40;7.60;;;;;;;10.19;46.30;97038.08;110283;1276;22221;-88
2023/12/19 08:55:33;;;;;;;25.80;8.80;;;;;;;10.22;46.05;97036.77;109940;1272;138227;-89
2023/12/19 08:57:59;;;;;;;9.20;3.40;;;;;;;10.25;45.98;97041.55;110006;1274;23239;-89
2023/12/19 09:00:25;;;;;;;20.00;8.10;;;;;;;10.28;46.14;97037.97;110056;1265;22384;-89
2023/12/19 09:02:51;;;;;;;21.80;10.00;;;;;;;10.30;45.52;97037.89;110067;1267;138004;-88
2023/12/19 09:05:19;;;;;;;25.50;12.50;;;;;;;10.35;45.37;97035.60;110220;1277;22192;-88
2023/12/19 09:07:48;;;;;;;37.10;18.40;;;;;;;10.42;45.36;97038.59;110011;1277;138197;-88
2023/12/19 09:10:15;;;;;;;36.60;14.60;;;;;;;10.47;45.83;97032.02;110010;1270;22288;-89
2023/12/19 09:12:42;;;;;;;37.50;16.90;;;;;;;10.51;45.31;97025.55;110025;1274;22896;-88
2023/12/19 09:15:08;;;;;;;29.90;14.10;;;;;;;10.56;45.63;97017.19;109966;1273;137853;-88
2023/12/19 09:17:34;;;;;;;43.10;19.70;;;;;;;10.60;46.11;97017.88;110070;1273;22220;-88
2023/12/19 09:20:04;;;;;;;56.20;24.60;;;;;;;10.63;46.13;97004.41;110117;1278;138962;-89
2023/12/19 09:22:31;;;;;;;11.80;5.80;;;;;;;10.67;45.35;97005.48;110107;1270;23358;-88
2023/12/19 09:24:57;;;;;;;10.80;5.40;;;;;;;10.75;45.92;97003.92;110095;1278;22302;-88
2023/12/19 09:27:24;;;;;;;7.80;3.10;;;;;;;10.77;45.78;96999.98;109943;1273;137936;-89
2023/12/19 09:29:50;;;;;;;31.00;14.90;;;;;;;10.80;45.59;96997.96;110298;1274;22429;-89
2023/12/19 09:32:18;;;;;;;37.80;21.30;;;;;;;10.82;44.92;96992.33;110004;1272;137942;-88
2023/12/19 09:34:44;;;;;;;46.10;22.70;;;;;;;10.87;45.18;96995.72;110192;1278;22685;-89
2023/12/19 09:37:10;;;;;;;48.20;24.50;;;;;;;10.90;44.04;96990.12;110115;1276;22899;-88
2023/12/19 09:39:36;;;;;;;50.10;23.60;;;;;;;10.94;44.67;96991.81;109947;1270;138349;-89
2023/12/19 09:42:03;;;;;;;36.90;18.50;;;;;;;10.96;45.15;96983.05;110037;1270;22354;-88
2023/12/19 09:44:29;;;;;;;38.30;16.60;;;;;;;10.97;44.78;96974.27;110175;1270;139045;-89
2023/12/19 09:46:55;;;;;;;12.70;5.80;;;;;;;10.99;45.07;96960.66;110213;1272;22198;-88
2023/12/19 09:49:23;;;;;;;7.60;3.10;;;;;;;10.99;44.55;96954.27;110078;1273;138756;-89
2023/12/19 09:51:53;;;;;;;16.40;6.00;;;;;;;11.00;44.85;96948.77;110062;1278;23229;-88
2023/12/19 09:54:20;;;;;;;15.00;5.90;;;;;;;11.00;45.06;96944.41;110025;1274;22307;-88
2023/12/19 09:56:47;;;;;;;10.40;5.20;;;;;;;11.01;45.17;96951.04;109958;1278;138775;-88
2023/12/19 09:59:18;;;;;;;3.40;2.00;;;;;;;11.03;45.04;96932.48;110061;1264;22137;-88
2023/12/19 10:01:44;;;;;;;12.80;5.70;;;;;;;11.03;44.79;96923.30;109962;1278;138046;-88
2023/12/19 10:04:14;;;;;;;15.50;6.80;;;;;;;11.02;45.07;96916.98;110096;1278;22215;-88
2023/12/19 10:06:55;;;;;;;17.30;8.10;;;;;;;11.00;44.99;96910.05;110106;1274;22208;-89
2023/12/19 10:09:22;;;;;;;9.80;3.70;;;;;;;11.01;44.55;96904.27;109940;1278;138813;-89
2023/12/19 10:12:09;;;;;;;8.00;3.60;;;;;;;11.04;43.86;96899.11;110037;1278;22409;-89
2023/12/19 10:14:36;;;;;;;4.00;2.20;;;;;;;11.10;43.96;96896.20;109955;1275;137973;-89
2023/12/19 10:17:04;;;;;;;3.50;2.00;;;;;;;11.13;44.29;96903.09;109997;1274;22845;-88
2023/12/19 10:19:30;;;;;;;2.80;1.20;;;;;;;11.14;44.04;96900.87;109990;1273;139664;-88
2023/12/19 10:22:09;;;;;;;14.60;5.90;;;;;;;11.18;43.69;96905.68;109952;1278;177690;-88
2023/12/19 10:24:35;;;;;;;17.30;6.80;;;;;;;11.22;43.85;96896.38;109978;1278;22210;-88
2023/12/19 10:27:02;;;;;;;21.70;8.60;;;;;;;11.26;43.68;96886.63;110153;1271;138043;-88
2023/12/19 10:29:36;;;;;;;5.00;2.50;;;;;;;11.28;44.05;96880.11;110209;1271;22240;-89
2023/12/19 10:32:14;;;;;;;7.00;3.50;;;;;;;11.30;43.81;96873.98;109933;1278;138236;-88
2023/12/19 10:34:41;;;;;;;6.50;3.10;;;;;;;11.31;44.13;96873.27;110250;1278;22238;-89
2023/12/19 10:37:20;;;;;;;4.10;2.30;;;;;;;11.34;43.88;96866.07;109966;1274;23288;-88
2023/12/19 10:39:49;;;;;;;2.40;1.30;;;;;;;11.39;43.14;96857.67;110073;1278;22253;-89
2023/12/19 10:42:18;;;;;;;3.20;0.80;;;;;;;11.46;42.90;96845.65;110011;1278;22346;-88
2023/12/19 10:44:44;;;;;;;5.70;2.10;;;;;;;11.50;43.16;96844.44;109983;1275;138479;-89
2023/12/19 10:47:10;;;;;;;11.70;4.20;;;;;;;11.52;43.57;96834.66;110215;1278;22366;-89
2023/12/19 10:49:37;;;;;;;4.50;2.10;;;;;;;11.53;43.45;96832.59;110146;1273;138855;-89
2023/12/19 10:52:10;;;;;;;9.10;3.70;;;;;;;11.56;43.31;96828.16;110101;1272;22220;-89
2023/12/19 10:54:36;;;;;;;2.20;1.20;;;;;;;11.58;43.55;96814.42;110064;1274;22714;-89
2023/12/19 10:57:16;;;;;;;8.70;4.10;;;;;;;11.59;44.02;96810.27;109956;1278;137974;-89
2023/12/19 10:59:58;;;;;;;4.30;2.00;;;;;;;11.60;44.04;96802.73;110022;1278;22333;-88
2023/12/19 11:02:43;;;;;;;7.40;4.60;;;;;;;11.61;43.87;96799.26;109963;1278;137977;-88
2023/12/19 11:05:36;;;;;;;3.20;2.50;;;;;;;11.61;43.68;96792.65;110266;1270;22118;-88
2023/12/19 11:08:04;;;;;;;2.30;1.40;;;;;;;11.61;43.41;96788.98;110149;1270;138704;-88
2023/12/19 11:10:33;;;;;;;1.30;0.60;;;;;;;11.62;43.44;96781.48;110070;1278;22701;-88
2023/12/19 11:12:59;;;;;;;5.50;1.80;;;;;;;11.61;43.15;96791.25;110062;1273;22324;-88
2023/12/19 11:15:27;;;;;;;2.90;1.80;;;;;;;11.61;43.33;96779.98;109954;1274;138289;-89
2023/12/19 11:18:07;;;;;;;3.20;1.50;;;;;;;11.61;43.13;96781.23;110058;1275;23061;-88
2023/12/19 11:20:37;;;;;;;2.30;1.10;;;;;;;11.62;42.66;96770.75;109993;1272;138128;-88